Caswell Beach, North Carolina
Current Conditions -  °F | °C
As of 12:15 AM on Friday 31 Oct 2014 (Local Time) from KSUT Reporting Station
Broken Clouds Broken Clouds  
Wind Chill: 57°   Ceiling: 4800
Heat Index: 57°   Visibility: 10mi
Dew Point: 52°   Wind: 6mph
Humidity: 83%   Direction: 20°NNE
Pressure: 29.93"   Gusts: NA
Location:  33.9216°N, 78.1244°W
Report Text: KSUT 310415Z AUTO 02005KT 10SM BKN048 14/11 A2993 RMK AO2 T01400111
Loading
Personal Weather Stations






























Interactive Weather Map
Tropical Storm Tracking
New forecast layout! Learn more

10-Day Weather Forecast

Advertisements
Track Severe Weather on mobile